Time;durP1;ratioP1;P1;durP2;ratioP2;P2;SDS_P1;SDS_P2;PMS_P1;PMS_P2;Temp;Humidity;BMP_temperature;BMP_pressure;BME280_temperature;BME280_humidity;BME280_pressure;Samples;Min_cycle;Max_cycle;Signal;HPM_P1;HPM_P2
2022/12/21 00:01:57;;;;;;;12.82;7.38;;;;;;;;;;5015652;28;20450;-77
2022/12/21 00:04:23;;;;;;;15.43;7.00;;;;;;;;;;5015461;28;20033;-78
2022/12/21 00:06:49;;;;;;;12.95;7.47;;;;;;;;;;5015677;28;20101;-78
2022/12/21 00:09:15;;;;;;;17.20;8.10;;;;;;;;;;5015775;28;20057;-77
2022/12/21 00:11:41;;;;;;;16.67;7.05;;;;;;;;;;5015756;28;20033;-77
2022/12/21 00:14:08;;;;;;;10.80;6.60;;;;;;;;;;5015942;28;20061;-77
2022/12/21 00:16:37;;;;;;;10.30;6.65;;;;;;;;;;5015732;28;20026;-78
2022/12/21 00:19:03;;;;;;;10.50;6.05;;;;;;;;;;5015468;28;20033;-78
2022/12/21 00:21:30;;;;;;;13.63;6.88;;;;;;;;;;5022736;28;20026;-77
2022/12/21 00:23:58;;;;;;;47.17;6.68;;;;;;;;;;5035146;28;20551;-78
2022/12/21 00:26:24;;;;;;;32.47;6.35;;;;;;;;;;5035676;28;20022;-78
2022/12/21 00:28:52;;;;;;;51.25;7.20;;;;;;;;;;5035155;28;20033;-77
2022/12/21 00:31:20;;;;;;;44.33;6.70;;;;;;;;;;5030007;28;20030;-77
2022/12/21 00:33:46;;;;;;;56.75;7.22;;;;;;;;;;5015376;28;20477;-77
2022/12/21 00:36:13;;;;;;;26.05;6.50;;;;;;;;;;5015555;28;20057;-78
2022/12/21 00:38:39;;;;;;;35.95;6.40;;;;;;;;;;5015239;28;20041;-78
2022/12/21 00:41:07;;;;;;;39.17;6.25;;;;;;;;;;5015044;28;20034;-77
2022/12/21 00:43:33;;;;;;;39.38;7.15;;;;;;;;;;5015250;28;20109;-77
2022/12/21 00:46:00;;;;;;;20.92;6.10;;;;;;;;;;5015045;28;20026;-77
2022/12/21 00:48:26;;;;;;;35.17;6.80;;;;;;;;;;5014854;28;20112;-77
2022/12/21 00:50:52;;;;;;;19.15;5.82;;;;;;;;;;5014945;28;20026;-77
2022/12/21 00:53:19;;;;;;;19.20;6.07;;;;;;;;;;5013703;28;20132;-78
2022/12/21 00:55:55;;;;;;;27.25;6.35;;;;;;;;;;5014644;28;20522;-78
2022/12/21 00:58:22;;;;;;;17.30;5.72;;;;;;;;;;5014969;28;20076;-77
2022/12/21 01:00:48;;;;;;;20.30;6.28;;;;;;;;;;5014387;28;20029;-77
2022/12/21 01:03:14;;;;;;;24.88;6.47;;;;;;;;;;5014738;28;20022;-77
2022/12/21 01:05:40;;;;;;;38.70;6.05;;;;;;;;;;5014638;28;20439;-78
2022/12/21 01:08:06;;;;;;;13.98;5.78;;;;;;;;;;5014770;28;20053;-77
2022/12/21 01:10:32;;;;;;;31.27;6.70;;;;;;;;;;5014389;28;20050;-77
2022/12/21 01:12:58;;;;;;;16.25;6.25;;;;;;;;;;5014547;28;20420;-78
2022/12/21 01:15:24;;;;;;;9.63;5.75;;;;;;;;;;5014228;28;20041;-77
2022/12/21 01:17:50;;;;;;;13.93;5.78;;;;;;;;;;5014374;28;20085;-77
2022/12/21 01:20:16;;;;;;;7.82;5.82;;;;;;;;;;5014285;28;20141;-77
2022/12/21 01:22:42;;;;;;;7.10;5.57;;;;;;;;;;5014300;28;20030;-78
2022/12/21 01:25:08;;;;;;;10.27;5.57;;;;;;;;;;5014435;28;20084;-77
2022/12/21 01:27:34;;;;;;;13.63;6.05;;;;;;;;;;5015306;28;20022;-77
2022/12/21 01:30:00;;;;;;;18.80;6.32;;;;;;;;;;5014467;28;20022;-77
2022/12/21 01:32:26;;;;;;;15.75;5.82;;;;;;;;;;5014022;28;20370;-78
2022/12/21 01:34:52;;;;;;;10.68;5.65;;;;;;;;;;5014308;28;20037;-78
2022/12/21 01:37:18;;;;;;;9.02;5.43;;;;;;;;;;5014050;28;20030;-77
2022/12/21 01:39:44;;;;;;;12.05;5.85;;;;;;;;;;5014010;28;20040;-77
2022/12/21 01:42:11;;;;;;;12.18;6.50;;;;;;;;;;5013867;28;20354;-77
2022/12/21 01:44:54;;;;;;;11.15;5.30;;;;;;;;;;5014112;28;20079;-78
2022/12/21 01:47:22;;;;;;;15.55;6.20;;;;;;;;;;5013969;28;20033;-77
2022/12/21 01:49:51;;;;;;;10.05;6.00;;;;;;;;;;5013841;28;20041;-77
2022/12/21 01:52:17;;;;;;;13.00;6.28;;;;;;;;;;5012376;28;20030;-78
2022/12/21 01:54:45;;;;;;;8.88;6.00;;;;;;;;;;5013918;28;20030;-77
2022/12/21 01:57:13;;;;;;;8.70;5.90;;;;;;;;;;5013840;28;20062;-77
2022/12/21 01:59:42;;;;;;;9.43;6.45;;;;;;;;;;5013901;28;20034;-78
2022/12/21 02:02:09;;;;;;;10.52;6.45;;;;;;;;;;5013742;28;20022;-77
2022/12/21 02:04:36;;;;;;;9.52;6.18;;;;;;;;;;5013742;28;20104;-78
2022/12/21 02:07:02;;;;;;;13.02;6.88;;;;;;;;;;5013527;28;20362;-77
2022/12/21 02:09:29;;;;;;;11.32;6.50;;;;;;;;;;5013832;28;20148;-77
2022/12/21 02:11:56;;;;;;;20.20;7.28;;;;;;;;;;5013555;28;20030;-77
2022/12/21 02:14:22;;;;;;;19.92;7.25;;;;;;;;;;5013638;28;20021;-78
2022/12/21 02:17:00;;;;;;;13.07;6.72;;;;;;;;;;5013465;28;20109;-77
2022/12/21 02:19:45;;;;;;;11.43;7.03;;;;;;;;;;5028182;28;20363;-77
2022/12/21 02:22:29;;;;;;;16.65;6.88;;;;;;;;;;5033018;28;20029;-77
2022/12/21 02:25:00;;;;;;;38.00;8.07;;;;;;;;;;5033244;28;20480;-77
2022/12/21 02:27:32;;;;;;;19.88;7.18;;;;;;;;;;5033442;28;20032;-78
2022/12/21 02:29:58;;;;;;;13.13;6.97;;;;;;;;;;5033261;28;20160;-77
2022/12/21 02:32:39;;;;;;;11.70;7.20;;;;;;;;;;5033129;28;20505;-77
2022/12/21 02:35:24;;;;;;;25.85;8.65;;;;;;;;;;5033388;28;20033;-77
2022/12/21 02:37:50;;;;;;;13.77;6.82;;;;;;;;;;5033118;28;20523;-77
2022/12/21 02:40:21;;;;;;;13.05;6.60;;;;;;;;;;5033218;28;20079;-77
2022/12/21 02:46:04;;;;;;;14.77;6.30;;;;;;;;;;5015960;28;20120;-77
2022/12/21 02:48:36;;;;;;;11.70;6.47;;;;;;;;;;5016870;28;20581;-77
2022/12/21 02:51:04;;;;;;;14.45;6.70;;;;;;;;;;5016881;28;20029;-78
2022/12/21 02:53:32;;;;;;;14.85;7.15;;;;;;;;;;5015380;28;20050;-77
2022/12/21 02:55:58;;;;;;;17.08;6.80;;;;;;;;;;5016776;28;20026;-77
2022/12/21 02:58:24;;;;;;;15.95;7.45;;;;;;;;;;5016655;28;20077;-78
2022/12/21 03:00:53;;;;;;;17.58;6.97;;;;;;;;;;5016657;28;20369;-77
2022/12/21 03:06:25;;;;;;;10.70;5.95;;;;;;;;;;5016400;28;20029;-77
2022/12/21 03:08:57;;;;;;;7.70;5.95;;;;;;;;;;5016261;28;20030;-77
2022/12/21 03:11:31;;;;;;;13.23;6.40;;;;;;;;;;5016312;28;20054;-77
2022/12/21 03:14:10;;;;;;;10.30;5.68;;;;;;;;;;5016315;28;20030;-77
2022/12/21 03:16:36;;;;;;;14.93;6.00;;;;;;;;;;5016230;28;20528;-78
2022/12/21 03:19:11;;;;;;;13.25;6.93;;;;;;;;;;5016235;28;20112;-77
2022/12/21 03:21:43;;;;;;;15.38;8.10;;;;;;;;;;5016321;28;20033;-77
2022/12/21 03:24:28;;;;;;;21.92;6.47;;;;;;;;;;5016385;28;20026;-77
2022/12/21 03:26:56;;;;;;;27.42;7.15;;;;;;;;;;5016144;28;20057;-77
2022/12/21 03:29:26;;;;;;;51.80;7.90;;;;;;;;;;5016271;28;20420;-77
2022/12/21 03:31:55;;;;;;;22.80;7.15;;;;;;;;;;5016343;28;20028;-77
2022/12/21 03:34:23;;;;;;;13.88;6.05;;;;;;;;;;5016018;28;20093;-77
2022/12/21 03:36:52;;;;;;;24.30;6.15;;;;;;;;;;5015880;28;20088;-77
2022/12/21 03:39:21;;;;;;;22.13;6.22;;;;;;;;;;5015860;28;20252;-77
2022/12/21 03:42:06;;;;;;;7.97;5.47;;;;;;;;;;5015842;28;20030;-78
2022/12/21 03:44:36;;;;;;;12.15;5.93;;;;;;;;;;5015928;28;20032;-78
2022/12/21 03:47:05;;;;;;;14.77;6.45;;;;;;;;;;5015780;28;20468;-78
2022/12/21 03:49:34;;;;;;;17.00;7.22;;;;;;;;;;5015578;28;20053;-77
2022/12/21 03:52:18;;;;;;;27.73;7.22;;;;;;;;;;5015553;28;20362;-77
2022/12/21 03:54:53;;;;;;;24.20;6.88;;;;;;;;;;5015251;28;20141;-77
2022/12/21 03:57:20;;;;;;;24.48;7.88;;;;;;;;;;5015464;28;20036;-77
2022/12/21 03:59:47;;;;;;;42.58;8.90;;;;;;;;;;5015417;28;20054;-77
2022/12/21 04:02:19;;;;;;;18.75;6.38;;;;;;;;;;5015390;28;20072;-77
2022/12/21 04:04:53;;;;;;;25.35;7.30;;;;;;;;;;5015333;28;20025;-77
2022/12/21 04:07:24;;;;;;;18.80;6.70;;;;;;;;;;5015533;28;20465;-77
2022/12/21 04:09:55;;;;;;;13.55;6.50;;;;;;;;;;5015092;28;20018;-77
2022/12/21 04:12:36;;;;;;;12.27;7.20;;;;;;;;;;5015301;28;20025;-77
2022/12/21 04:15:03;;;;;;;19.00;6.78;;;;;;;;;;5014988;28;20030;-77
2022/12/21 04:17:29;;;;;;;27.15;7.00;;;;;;;;;;5015017;28;20113;-77
2022/12/21 04:19:58;;;;;;;17.85;6.60;;;;;;;;;;5015012;28;20065;-77
2022/12/21 04:28:09;;;;;;;101.97;11.20;;;;;;;;;;5015142;28;20088;-77
2022/12/21 04:30:36;;;;;;;13.68;5.80;;;;;;;;;;5014846;28;20026;-77
2022/12/21 04:33:02;;;;;;;34.97;8.15;;;;;;;;;;5015146;28;20456;-77
2022/12/21 04:35:29;;;;;;;78.72;10.55;;;;;;;;;;5014773;28;20026;-77
2022/12/21 04:37:55;;;;;;;39.95;7.97;;;;;;;;;;5014723;28;20025;-77
2022/12/21 04:40:21;;;;;;;85.28;11.02;;;;;;;;;;5014639;28;20029;-77
2022/12/21 04:42:47;;;;;;;95.15;11.27;;;;;;;;;;5014780;28;20057;-77
2022/12/21 04:45:13;;;;;;;110.40;13.30;;;;;;;;;;5014611;28;20044;-77
2022/12/21 04:47:39;;;;;;;140.82;14.65;;;;;;;;;;5014801;28;20514;-77
2022/12/21 04:50:05;;;;;;;29.55;7.22;;;;;;;;;;5014515;28;20105;-77
2022/12/21 04:52:31;;;;;;;23.92;7.47;;;;;;;;;;5013226;28;20084;-77
2022/12/21 04:54:57;;;;;;;17.90;7.55;;;;;;;;;;5014458;28;20036;-78
2022/12/21 04:57:24;;;;;;;27.25;7.85;;;;;;;;;;5014304;28;20038;-77
2022/12/21 04:59:49;;;;;;;18.67;6.93;;;;;;;;;;5014409;28;20054;-77
2022/12/21 05:02:16;;;;;;;16.98;6.95;;;;;;;;;;5014386;28;20060;-77
2022/12/21 05:04:42;;;;;;;25.85;7.65;;;;;;;;;;5014389;28;20030;-77
2022/12/21 05:07:08;;;;;;;18.63;7.18;;;;;;;;;;5013932;28;20030;-78
2022/12/21 05:09:34;;;;;;;24.65;7.03;;;;;;;;;;5014075;28;20026;-77
2022/12/21 05:12:00;;;;;;;29.60;9.23;;;;;;;;;;5014239;28;20109;-77
2022/12/21 05:14:28;;;;;;;28.45;7.03;;;;;;;;;;5013849;28;20038;-77
2022/12/21 05:16:54;;;;;;;40.97;7.70;;;;;;;;;;5014092;28;20021;-77
2022/12/21 05:19:20;;;;;;;19.33;6.40;;;;;;;;;;5014192;28;20032;-77
2022/12/21 05:21:46;;;;;;;23.27;6.45;;;;;;;;;;5014184;28;20491;-77
2022/12/21 05:24:12;;;;;;;24.33;6.60;;;;;;;;;;5014306;28;20026;-77
2022/12/21 05:26:38;;;;;;;32.47;7.15;;;;;;;;;;5014020;28;20017;-77
2022/12/21 05:29:05;;;;;;;34.53;7.07;;;;;;;;;;5014102;28;20101;-77
2022/12/21 05:31:31;;;;;;;23.90;6.47;;;;;;;;;;5013916;28;20104;-77
2022/12/21 05:33:57;;;;;;;33.90;7.03;;;;;;;;;;5014054;28;20030;-78
2022/12/21 05:36:24;;;;;;;25.33;6.18;;;;;;;;;;5014056;28;20028;-78
2022/12/21 05:38:50;;;;;;;59.55;8.00;;;;;;;;;;5023573;28;20040;-78
2022/12/21 05:41:17;;;;;;;43.25;8.40;;;;;;;;;;5035423;28;20033;-78
2022/12/21 05:43:43;;;;;;;34.65;8.25;;;;;;;;;;5034415;28;20476;-78
2022/12/21 05:46:10;;;;;;;32.58;6.75;;;;;;;;;;5034182;28;20017;-78
2022/12/21 05:48:36;;;;;;;49.83;8.15;;;;;;;;;;5030029;28;20032;-77
2022/12/21 05:51:06;;;;;;;27.63;6.95;;;;;;;;;;5022498;28;20147;-78
2022/12/21 05:53:32;;;;;;;40.83;7.55;;;;;;;;;;5013140;28;20061;-78
2022/12/21 05:55:58;;;;;;;23.55;6.45;;;;;;;;;;5014316;28;20030;-77
2022/12/21 05:58:24;;;;;;;31.38;6.68;;;;;;;;;;5014444;28;20100;-78
2022/12/21 06:00:52;;;;;;;26.38;6.70;;;;;;;;;;5013791;28;20029;-77
2022/12/21 06:03:18;;;;;;;22.67;7.10;;;;;;;;;;5013955;28;20443;-77
2022/12/21 06:05:44;;;;;;;18.20;6.95;;;;;;;;;;5026674;28;20471;-77
2022/12/21 06:08:10;;;;;;;26.02;6.53;;;;;;;;;;5033760;28;20068;-77
2022/12/21 06:10:37;;;;;;;22.65;7.03;;;;;;;;;;5016703;28;20032;-77
2022/12/21 06:13:03;;;;;;;14.10;6.50;;;;;;;;;;5014075;28;20032;-77
2022/12/21 06:15:29;;;;;;;14.32;6.53;;;;;;;;;;5016222;28;20024;-77
2022/12/21 06:17:56;;;;;;;24.55;7.22;;;;;;;;;;5033311;28;20022;-77
2022/12/21 06:20:22;;;;;;;14.07;7.15;;;;;;;;;;5035721;28;20028;-77
2022/12/21 06:22:47;;;;;;;49.45;9.07;;;;;;;;;;5036978;28;20380;-77
2022/12/21 06:25:13;;;;;;;24.13;6.97;;;;;;;;;;5037058;28;20108;-77
2022/12/21 06:27:39;;;;;;;22.17;7.80;;;;;;;;;;5037025;28;20038;-77
2022/12/21 06:30:06;;;;;;;21.70;6.55;;;;;;;;;;5037010;28;20063;-77
2022/12/21 06:32:32;;;;;;;22.05;6.90;;;;;;;;;;5036892;28;20026;-77
2022/12/21 06:34:58;;;;;;;46.38;9.10;;;;;;;;;;5037134;28;20070;-78
2022/12/21 06:37:24;;;;;;;14.27;6.82;;;;;;;;;;5036833;28;20449;-77
2022/12/21 06:39:50;;;;;;;22.73;7.45;;;;;;;;;;5037098;28;20152;-77
2022/12/21 06:42:16;;;;;;;25.52;8.20;;;;;;;;;;5036881;28;20025;-77
2022/12/21 06:44:42;;;;;;;28.08;7.70;;;;;;;;;;5036781;28;20928;-77
2022/12/21 06:47:07;;;;;;;32.15;7.85;;;;;;;;;;5036703;28;20029;-77
2022/12/21 06:49:33;;;;;;;20.00;8.77;;;;;;;;;;5036910;28;20039;-77
2022/12/21 06:51:59;;;;;;;23.13;7.40;;;;;;;;;;5036638;28;20075;-77
2022/12/21 06:54:25;;;;;;;25.55;7.90;;;;;;;;;;5035359;28;20064;-77
2022/12/21 06:56:59;;;;;;;20.60;7.95;;;;;;;;;;5036497;28;20029;-77
2022/12/21 06:59:25;;;;;;;23.38;7.93;;;;;;;;;;5036817;28;20476;-77
2022/12/21 07:01:51;;;;;;;37.80;9.50;;;;;;;;;;5036164;28;20415;-77
2022/12/21 07:04:17;;;;;;;19.13;7.20;;;;;;;;;;5036614;28;20424;-77
2022/12/21 07:06:43;;;;;;;15.45;8.20;;;;;;;;;;5036560;28;20037;-77
2022/12/21 07:09:11;;;;;;;26.15;8.18;;;;;;;;;;5036408;28;20026;-78
2022/12/21 07:11:37;;;;;;;17.88;7.63;;;;;;;;;;5036490;28;20022;-77
2022/12/21 07:14:03;;;;;;;16.17;8.48;;;;;;;;;;5036316;28;20036;-77
2022/12/21 07:16:29;;;;;;;16.00;7.68;;;;;;;;;;5036166;28;20503;-78
2022/12/21 07:18:55;;;;;;;16.75;7.80;;;;;;;;;;5020298;28;20026;-78
2022/12/21 07:21:22;;;;;;;16.98;7.72;;;;;;;;;;5036264;28;20094;-77
2022/12/21 07:23:48;;;;;;;13.27;7.03;;;;;;;;;;5035853;28;20465;-77
2022/12/21 07:26:15;;;;;;;13.10;6.72;;;;;;;;;;5035823;28;20488;-77
2022/12/21 07:28:43;;;;;;;19.48;7.43;;;;;;;;;;5035952;28;20037;-78
2022/12/21 07:31:11;;;;;;;18.23;7.60;;;;;;;;;;5037383;28;20033;-78
2022/12/21 07:33:37;;;;;;;19.65;7.40;;;;;;;;;;5036821;28;20025;-77
2022/12/21 07:36:04;;;;;;;25.38;8.27;;;;;;;;;;5036058;28;20021;-78
2022/12/21 07:38:34;;;;;;;14.77;7.78;;;;;;;;;;5036003;28;20087;-77
2022/12/21 07:41:01;;;;;;;17.45;8.75;;;;;;;;;;5036011;28;20036;-78
2022/12/21 07:43:27;;;;;;;21.10;8.45;;;;;;;;;;5035612;28;20022;-77
2022/12/21 07:45:53;;;;;;;23.13;8.93;;;;;;;;;;5035724;28;20025;-78
2022/12/21 07:48:19;;;;;;;21.23;9.23;;;;;;;;;;5035504;28;20034;-78
2022/12/21 07:50:46;;;;;;;24.55;9.52;;;;;;;;;;5035755;28;20068;-77
2022/12/21 07:53:12;;;;;;;22.05;10.25;;;;;;;;;;5033956;28;20049;-77
2022/12/21 07:55:38;;;;;;;24.88;10.15;;;;;;;;;;5036002;28;20041;-78
2022/12/21 07:58:04;;;;;;;19.70;10.00;;;;;;;;;;5035376;28;20361;-78
2022/12/21 08:00:30;;;;;;;25.42;11.02;;;;;;;;;;5035237;28;20029;-77
2022/12/21 08:03:03;;;;;;;25.40;10.80;;;;;;;;;;5028478;28;20036;-77
2022/12/21 08:05:28;;;;;;;24.33;11.13;;;;;;;;;;5035289;28;20086;-77
2022/12/21 08:07:54;;;;;;;25.33;11.00;;;;;;;;;;5035019;28;20104;-77
2022/12/21 08:10:20;;;;;;;29.23;12.30;;;;;;;;;;5035214;28;20013;-78
2022/12/21 08:12:46;;;;;;;25.77;11.55;;;;;;;;;;5035176;28;20033;-78
2022/12/21 08:15:12;;;;;;;29.00;12.77;;;;;;;;;;5035184;28;20109;-77
2022/12/21 08:17:38;;;;;;;36.00;13.13;;;;;;;;;;5035224;28;20774;-77
2022/12/21 08:20:05;;;;;;;33.22;12.48;;;;;;;;;;5035039;28;20041;-77
2022/12/21 08:22:31;;;;;;;34.00;12.70;;;;;;;;;;5034789;28;20041;-77
2022/12/21 08:24:57;;;;;;;31.63;12.43;;;;;;;;;;5034981;28;20025;-77
2022/12/21 08:27:23;;;;;;;36.58;12.55;;;;;;;;;;5035298;28;20104;-78
2022/12/21 08:29:49;;;;;;;35.67;12.48;;;;;;;;;;5035102;28;20033;-78
2022/12/21 08:32:15;;;;;;;32.97;12.82;;;;;;;;;;5035290;28;20030;-78
2022/12/21 08:34:41;;;;;;;52.10;14.63;;;;;;;;;;5035332;28;20365;-77
2022/12/21 08:37:07;;;;;;;114.65;16.88;;;;;;;;;;5035053;28;20078;-77
2022/12/21 08:39:33;;;;;;;35.33;12.18;;;;;;;;;;5034779;28;20037;-76
2022/12/21 08:41:59;;;;;;;25.42;10.48;;;;;;;;;;5034704;28;20029;-78
2022/12/21 08:44:25;;;;;;;33.08;11.68;;;;;;;;;;5035211;28;20156;-78
2022/12/21 08:46:51;;;;;;;25.23;10.60;;;;;;;;;;5017897;28;20369;-78
2022/12/21 08:49:17;;;;;;;21.75;10.95;;;;;;;;;;5036193;28;20113;-78
2022/12/21 08:51:43;;;;;;;24.75;10.65;;;;;;;;;;5035826;28;20468;-78
2022/12/21 08:54:09;;;;;;;40.03;11.95;;;;;;;;;;5036088;28;20128;-78
2022/12/21 08:56:35;;;;;;;22.23;10.40;;;;;;;;;;5037044;28;20057;-79
2022/12/21 08:59:05;;;;;;;19.08;9.48;;;;;;;;;;5034979;28;20060;-78
2022/12/21 09:01:32;;;;;;;23.17;9.10;;;;;;;;;;5036076;28;20033;-78
2022/12/21 09:03:58;;;;;;;23.52;9.27;;;;;;;;;;5035606;28;20037;-78
2022/12/21 09:06:24;;;;;;;18.52;8.90;;;;;;;;;;5034602;28;20022;-78
2022/12/21 09:08:50;;;;;;;21.65;9.95;;;;;;;;;;5034974;28;20095;-78
2022/12/21 09:11:17;;;;;;;23.00;9.30;;;;;;;;;;5032658;28;20022;-78
2022/12/21 09:13:43;;;;;;;20.58;9.45;;;;;;;;;;5015179;28;20075;-79
2022/12/21 09:16:12;;;;;;;29.52;9.52;;;;;;;;;;5015322;28;20365;-78
2022/12/21 09:18:38;;;;;;;19.55;8.45;;;;;;;;;;5015464;28;20778;-78
2022/12/21 09:21:04;;;;;;;21.98;8.30;;;;;;;;;;5014332;28;20041;-78
2022/12/21 09:23:30;;;;;;;39.38;9.85;;;;;;;;;;5016971;28;20033;-79
2022/12/21 09:25:56;;;;;;;33.58;9.23;;;;;;;;;;5026141;28;20021;-78
2022/12/21 09:28:22;;;;;;;28.42;7.97;;;;;;;;;;5037147;28;20109;-79
2022/12/21 09:30:48;;;;;;;24.90;8.55;;;;;;;;;;5037374;28;20060;-78
2022/12/21 09:33:14;;;;;;;27.08;8.20;;;;;;;;;;5037174;28;20073;-79
2022/12/21 09:35:40;;;;;;;25.27;7.50;;;;;;;;;;5024867;28;20058;-79
2022/12/21 09:38:06;;;;;;;19.02;8.07;;;;;;;;;;5032797;28;20056;-79
2022/12/21 09:40:33;;;;;;;20.65;8.40;;;;;;;;;;5036139;28;20034;-79
2022/12/21 09:43:08;;;;;;;21.77;8.43;;;;;;;;;;5018310;28;20021;-79
2022/12/21 09:45:40;;;;;;;20.63;7.90;;;;;;;;;;5035613;28;20104;-79
2022/12/21 09:48:15;;;;;;;24.15;9.18;;;;;;;;;;5035503;28;20085;-78
2022/12/21 09:50:44;;;;;;;24.25;9.35;;;;;;;;;;5015757;28;20373;-79
2022/12/21 09:53:12;;;;;;;26.63;8.95;;;;;;;;;;5015308;28;20022;-79
2022/12/21 09:55:44;;;;;;;34.38;9.73;;;;;;;;;;5019385;28;20037;-78
2022/12/21 09:58:13;;;;;;;21.30;8.48;;;;;;;;;;5019436;28;20026;-78
2022/12/21 10:00:42;;;;;;;22.03;8.03;;;;;;;;;;5019130;28;20685;-78
2022/12/21 10:03:26;;;;;;;16.27;8.18;;;;;;;;;;5029880;28;20026;-78
2022/12/21 10:06:03;;;;;;;21.75;8.82;;;;;;;;;;5031069;28;20021;-78
2022/12/21 10:08:47;;;;;;;18.35;8.27;;;;;;;;;;5038118;28;20032;-78
2022/12/21 10:11:30;;;;;;;22.95;9.20;;;;;;;;;;5034888;28;20025;-78
2022/12/21 10:14:08;;;;;;;24.30;10.20;;;;;;;;;;5039416;28;20366;-78
2022/12/21 10:16:45;;;;;;;22.33;9.73;;;;;;;;;;5038036;28;20030;-77
2022/12/21 10:19:29;;;;;;;19.42;10.10;;;;;;;;;;5038218;28;20494;-78
2022/12/21 10:21:55;;;;;;;24.65;10.40;;;;;;;;;;5035112;28;20022;-78
2022/12/21 10:24:27;;;;;;;29.58;11.82;;;;;;;;;;5026024;28;20060;-78
2022/12/21 10:26:55;;;;;;;23.65;11.60;;;;;;;;;;5039061;28;20030;-78
2022/12/21 10:29:26;;;;;;;28.30;14.00;;;;;;;;;;5038621;28;20037;-78
2022/12/21 10:31:52;;;;;;;;;;;;;;;;;;5039430;28;20025;-78
2022/12/21 10:34:19;;;;;;;25.92;11.80;;;;;;;;;;5038382;28;20433;-78
2022/12/21 10:36:47;;;;;;;26.48;11.88;;;;;;;;;;5038052;28;20030;-78
2022/12/21 10:39:15;;;;;;;31.27;12.85;;;;;;;;;;5037576;28;20041;-78
2022/12/21 10:41:43;;;;;;;25.13;11.32;;;;;;;;;;5040160;28;20021;-78
2022/12/21 10:44:11;;;;;;;25.42;12.25;;;;;;;;;;5038037;28;20022;-78
2022/12/21 10:46:37;;;;;;;24.52;11.10;;;;;;;;;;5038891;28;20028;-78
2022/12/21 10:49:12;;;;;;;26.63;13.05;;;;;;;;;;5025823;28;20449;-78
2022/12/21 10:51:38;;;;;;;39.58;13.57;;;;;;;;;;5027214;28;20076;-78
2022/12/21 10:54:05;;;;;;;27.75;12.40;;;;;;;;;;5023428;28;20069;-78
2022/12/21 10:56:33;;;;;;;27.02;13.52;;;;;;;;;;5016735;28;20026;-78
2022/12/21 10:59:07;;;;;;;28.10;11.95;;;;;;;;;;5016714;28;20083;-77
2022/12/21 11:01:33;;;;;;;31.92;12.43;;;;;;;;;;5016479;28;20034;-78
2022/12/21 11:04:10;;;;;;;27.30;12.40;;;;;;;;;;5016800;28;20018;-78
2022/12/21 11:06:37;;;;;;;31.85;12.70;;;;;;;;;;5016111;28;20381;-78
2022/12/21 11:09:04;;;;;;;24.15;11.00;;;;;;;;;;5016599;28;20030;-78
2022/12/21 11:11:35;;;;;;;32.55;12.77;;;;;;;;;;5016894;28;20018;-78
2022/12/21 11:14:01;;;;;;;;;;;;;;;;;;5017012;28;20130;-78
2022/12/21 11:16:36;;;;;;;26.02;11.25;;;;;;;;;;5019445;28;20350;-78
2022/12/21 11:19:03;;;;;;;32.30;11.82;;;;;;;;;;5032751;28;20030;-78
2022/12/21 11:21:32;;;;;;;25.48;12.18;;;;;;;;;;5038351;28;20044;-78
2022/12/21 11:24:04;;;;;;;25.67;11.40;;;;;;;;;;5036096;28;20079;-78
2022/12/21 11:26:33;;;;;;;26.35;11.85;;;;;;;;;;5020990;28;20026;-77
2022/12/21 11:29:14;;;;;;;23.98;10.73;;;;;;;;;;5016258;28;20110;-77
2022/12/21 11:31:40;;;;;;;21.05;10.80;;;;;;;;;;5016050;28;20109;-77
2022/12/21 11:34:17;;;;;;;26.17;11.18;;;;;;;;;;5028060;28;20029;-77
2022/12/21 11:36:56;;;;;;;28.08;12.80;;;;;;;;;;5035910;28;20033;-78
2022/12/21 11:39:23;;;;;;;29.33;12.45;;;;;;;;;;5035869;28;20035;-77
2022/12/21 11:41:53;;;;;;;30.35;12.32;;;;;;;;;;5035901;28;20017;-77
2022/12/21 11:44:39;;;;;;;30.75;11.27;;;;;;;;;;5035638;28;20056;-77
2022/12/21 11:47:14;;;;;;;28.15;12.40;;;;;;;;;;5035656;28;20033;-77
2022/12/21 11:49:59;;;;;;;31.45;12.55;;;;;;;;;;5036086;28;20026;-78
2022/12/21 11:52:40;;;;;;;25.13;11.07;;;;;;;;;;5035440;28;20460;-78
2022/12/21 11:55:12;;;;;;;29.30;12.73;;;;;;;;;;5034192;28;20053;-78
2022/12/21 11:57:47;;;;;;;35.15;12.93;;;;;;;;;;5035284;28;20453;-78
2022/12/21 12:00:20;;;;;;;28.02;12.68;;;;;;;;;;5035264;28;20435;-78
2022/12/21 12:03:03;;;;;;;30.33;13.48;;;;;;;;;;5035540;28;20453;-77
2022/12/21 12:05:29;;;;;;;33.40;13.35;;;;;;;;;;5035411;28;20052;-77
2022/12/21 12:08:00;;;;;;;30.85;14.02;;;;;;;;;;5035232;28;20472;-77
2022/12/21 12:10:27;;;;;;;33.80;14.68;;;;;;;;;;5035371;28;20096;-78
2022/12/21 12:13:31;;;;;;;34.42;15.05;;;;;;;;;;5035253;28;20029;-78
2022/12/21 12:16:30;;;;;;;32.15;14.27;;;;;;;;;;4935951;29;20494;-78
2022/12/21 12:18:55;;;;;;;33.28;14.95;;;;;;;;;;4904227;29;20050;-78
2022/12/21 12:21:40;;;;;;;34.35;15.02;;;;;;;;;;5004670;28;20391;-77
2022/12/21 12:24:25;;;;;;;32.25;14.60;;;;;;;;;;5033605;28;20024;-77
2022/12/21 12:26:51;;;;;;;39.05;15.75;;;;;;;;;;5022534;28;20115;-77
2022/12/21 12:29:33;;;;;;;38.75;15.20;;;;;;;;;;5034276;28;20120;-78
2022/12/21 12:32:05;;;;;;;37.83;16.95;;;;;;;;;;5034870;28;20476;-78
2022/12/21 12:34:37;;;;;;;36.45;17.45;;;;;;;;;;5030070;28;20473;-78
2022/12/21 12:37:12;;;;;;;37.72;15.90;;;;;;;;;;5014899;28;20515;-78
2022/12/21 12:39:46;;;;;;;29.58;14.98;;;;;;;;;;5014810;28;20032;-78
2022/12/21 12:42:33;;;;;;;34.95;15.63;;;;;;;;;;5014976;28;20026;-78
2022/12/21 12:45:19;;;;;;;37.80;15.52;;;;;;;;;;5001488;28;20121;-78
2022/12/21 12:47:48;;;;;;;40.78;17.17;;;;;;;;;;5014722;28;20033;-78
2022/12/21 12:50:21;;;;;;;34.25;16.90;;;;;;;;;;5014694;28;20045;-78
2022/12/21 12:52:55;;;;;;;36.45;15.50;;;;;;;;;;4997068;28;20037;-78
2022/12/21 12:55:43;;;;;;;39.75;16.33;;;;;;;;;;5014003;28;20046;-78
2022/12/21 12:58:16;;;;;;;29.35;15.15;;;;;;;;;;5014502;28;20030;-78
2022/12/21 13:00:48;;;;;;;32.85;15.93;;;;;;;;;;5014737;28;20488;-78
2022/12/21 13:03:26;;;;;;;36.60;16.75;;;;;;;;;;5014593;28;20065;-78
2022/12/21 13:06:03;;;;;;;34.35;15.50;;;;;;;;;;5014724;28;20041;-78
2022/12/21 13:08:41;;;;;;;30.02;14.70;;;;;;;;;;5018654;28;20384;-78
2022/12/21 13:11:25;;;;;;;33.05;14.98;;;;;;;;;;5035232;28;20029;-78
2022/12/21 13:13:54;;;;;;;37.22;14.98;;;;;;;;;;5034832;28;20060;-78
2022/12/21 13:16:35;;;;;;;31.70;15.73;;;;;;;;;;5034390;28;20060;-78
2022/12/21 13:19:04;;;;;;;31.45;14.55;;;;;;;;;;5034451;28;20499;-78
2022/12/21 13:21:32;;;;;;;29.35;14.73;;;;;;;;;;5034511;28;20361;-78
2022/12/21 13:24:01;;;;;;;31.88;14.25;;;;;;;;;;5034007;28;20021;-78
2022/12/21 13:26:47;;;;;;;33.78;14.55;;;;;;;;;;5034095;28;20029;-78
2022/12/21 13:29:21;;;;;;;27.80;13.25;;;;;;;;;;5033599;28;20037;-78
2022/12/21 13:31:49;;;;;;;28.13;13.75;;;;;;;;;;5034538;28;20204;-78
2022/12/21 13:34:28;;;;;;;32.35;13.05;;;;;;;;;;5034097;28;20060;-78
2022/12/21 13:36:55;;;;;;;22.70;13.82;;;;;;;;;;5034386;28;20026;-78
2022/12/21 13:39:31;;;;;;;32.28;13.80;;;;;;;;;;5034233;28;20103;-78
2022/12/21 13:42:07;;;;;;;28.73;13.57;;;;;;;;;;5033902;28;20049;-78
2022/12/21 13:44:35;;;;;;;28.13;14.32;;;;;;;;;;5034134;28;20041;-78
2022/12/21 13:47:02;;;;;;;25.08;13.52;;;;;;;;;;5034332;28;20032;-78
2022/12/21 13:49:46;;;;;;;25.83;12.80;;;;;;;;;;5033985;28;20417;-78
2022/12/21 13:52:25;;;;;;;30.00;13.55;;;;;;;;;;5033949;28;20022;-78
2022/12/21 13:55:09;;;;;;;31.95;14.25;;;;;;;;;;5032672;28;20050;-78
2022/12/21 13:57:38;;;;;;;32.17;14.50;;;;;;;;;;5034165;28;20033;-78
2022/12/21 14:00:13;;;;;;;27.30;14.00;;;;;;;;;;5033818;28;20025;-78
2022/12/21 14:02:45;;;;;;;28.75;13.48;;;;;;;;;;5033987;28;20029;-78
2022/12/21 14:05:16;;;;;;;31.45;14.70;;;;;;;;;;5034202;28;20479;-78
2022/12/21 14:07:45;;;;;;;30.65;15.75;;;;;;;;;;5034138;28;20033;-78
2022/12/21 14:10:14;;;;;;;31.80;16.30;;;;;;;;;;5033782;28;20491;-78
2022/12/21 14:12:59;;;;;;;33.20;15.98;;;;;;;;;;5033765;28;20080;-78
2022/12/21 14:15:42;;;;;;;37.08;17.45;;;;;;;;;;5033852;28;20026;-78
2022/12/21 14:18:13;;;;;;;30.23;15.85;;;;;;;;;;5033972;28;20652;-78
2022/12/21 14:20:41;;;;;;;30.98;17.35;;;;;;;;;;5033987;28;20101;-78
2022/12/21 14:23:14;;;;;;;34.47;16.30;;;;;;;;;;5034171;28;20009;-78
2022/12/21 14:25:43;;;;;;;30.33;15.70;;;;;;;;;;5033661;28;20033;-78
2022/12/21 14:28:25;;;;;;;37.25;16.33;;;;;;;;;;5033774;28;20033;-78
2022/12/21 14:30:57;;;;;;;30.05;15.35;;;;;;;;;;5033290;28;20079;-78
2022/12/21 14:33:43;;;;;;;39.15;16.73;;;;;;;;;;5033828;28;20029;-78
2022/12/21 14:36:12;;;;;;;38.15;16.73;;;;;;;;;;5033731;28;20045;-78
2022/12/21 14:38:38;;;;;;;29.65;16.33;;;;;;;;;;5033758;28;20040;-79
2022/12/21 14:41:13;;;;;;;35.65;17.48;;;;;;;;;;5035583;28;20061;-78
2022/12/21 14:43:58;;;;;;;30.23;15.68;;;;;;;;;;5038779;28;20075;-78
2022/12/21 14:46:27;;;;;;;39.08;15.60;;;;;;;;;;5037790;28;20026;-78
2022/12/21 14:49:03;;;;;;;34.53;17.10;;;;;;;;;;5018792;28;20029;-78
2022/12/21 14:51:49;;;;;;;37.40;16.65;;;;;;;;;;5034492;28;20076;-78
2022/12/21 14:54:39;;;;;;;33.58;16.25;;;;;;;;;;5017396;28;20058;-78